createdAt,value
2022-11-15T00:00:28.419Z,23.01
2022-11-15T00:02:55.050Z,23.01
2022-11-15T00:05:21.774Z,23.00
2022-11-15T00:07:55.497Z,23.00
2022-11-15T00:10:22.492Z,23.01
2022-11-15T00:12:49.116Z,23.00
2022-11-15T00:15:15.731Z,23.01
2022-11-15T00:17:42.344Z,22.99
2022-11-15T00:20:09.348Z,23.00
2022-11-15T00:22:35.974Z,23.00
2022-11-15T00:25:02.596Z,22.99
2022-11-15T00:27:29.209Z,23.00
2022-11-15T00:29:55.831Z,22.99
2022-11-15T00:32:22.455Z,22.98
2022-11-15T00:34:49.066Z,22.99
2022-11-15T00:37:15.671Z,23.00
2022-11-15T00:39:42.276Z,22.99
2022-11-15T00:42:08.890Z,23.00
2022-11-15T00:44:35.502Z,23.00
2022-11-15T00:47:02.133Z,23.00
2022-11-15T00:49:28.746Z,23.00
2022-11-15T00:51:55.381Z,22.99
2022-11-15T00:54:21.982Z,23.00
2022-11-15T00:56:48.580Z,23.00
2022-11-15T00:59:15.197Z,23.00
2022-11-15T01:01:41.803Z,23.00
2022-11-15T01:04:08.412Z,23.00
2022-11-15T01:06:35.015Z,22.99
2022-11-15T01:09:01.655Z,22.99
2022-11-15T01:11:28.265Z,22.99
2022-11-15T01:13:55.599Z,22.99
2022-11-15T01:16:22.209Z,22.99
2022-11-15T01:18:48.863Z,22.99
2022-11-15T01:21:17.243Z,22.99
2022-11-15T01:23:43.882Z,22.99
2022-11-15T01:26:12.874Z,22.98
2022-11-15T01:28:40.170Z,22.98
2022-11-15T01:31:10.069Z,22.98
2022-11-15T01:33:36.676Z,22.98
2022-11-15T01:36:07.217Z,22.98
2022-11-15T01:38:33.959Z,22.97
2022-11-15T01:41:00.559Z,22.98
2022-11-15T01:43:33.846Z,22.96
2022-11-15T01:46:07.051Z,22.98
2022-11-15T01:48:34.419Z,22.96
2022-11-15T01:51:01.741Z,22.96
2022-11-15T01:53:28.529Z,22.96
2022-11-15T01:55:55.329Z,22.96
2022-11-15T01:58:21.937Z,22.96
2022-11-15T02:00:48.619Z,22.96
2022-11-15T02:03:15.255Z,22.96
2022-11-15T02:05:41.878Z,22.97
2022-11-15T02:08:09.085Z,22.97
2022-11-15T02:10:35.720Z,22.97
2022-11-15T02:13:02.324Z,22.96
2022-11-15T02:15:32.333Z,22.96
2022-11-15T02:18:07.052Z,22.95
2022-11-15T02:20:39.569Z,22.95
2022-11-15T02:23:14.325Z,22.94
2022-11-15T02:25:40.886Z,22.96
2022-11-15T02:28:13.237Z,22.95
2022-11-15T02:30:43.894Z,22.95
2022-11-15T02:33:43.373Z,22.95
2022-11-15T02:36:16.590Z,22.95
2022-11-15T02:38:52.217Z,22.95
2022-11-15T02:41:23.840Z,22.95
2022-11-15T02:43:55.891Z,22.95
2022-11-15T02:46:23.978Z,22.95
2022-11-15T02:48:50.953Z,22.95
2022-11-15T02:51:17.572Z,22.95
2022-11-15T02:53:44.225Z,22.95
2022-11-15T02:56:10.832Z,22.95
2022-11-15T02:59:02.205Z,22.95
2022-11-15T03:01:34.802Z,22.95
2022-11-15T03:04:18.645Z,22.95
2022-11-15T03:07:00.481Z,22.94
2022-11-15T03:09:46.328Z,22.95
2022-11-15T03:12:34.206Z,22.93
2022-11-15T03:15:14.294Z,22.93
2022-11-15T03:17:50.265Z,22.94
2022-11-15T03:20:17.103Z,22.94
2022-11-15T03:22:45.191Z,22.93
2022-11-15T03:25:13.856Z,22.95
2022-11-15T03:27:48.569Z,22.95
2022-11-15T03:30:15.183Z,22.95
2022-11-15T03:32:47.236Z,22.94
2022-11-15T03:35:15.612Z,22.93
2022-11-15T03:37:42.076Z,22.93
2022-11-15T03:40:09.044Z,22.93
2022-11-15T03:42:47.698Z,22.93
2022-11-15T03:45:28.143Z,22.92
2022-11-15T03:48:03.705Z,22.93
2022-11-15T03:50:30.305Z,22.92
2022-11-15T03:52:56.901Z,22.92
2022-11-15T03:55:23.519Z,22.93
2022-11-15T03:57:54.737Z,22.92
2022-11-15T04:00:21.342Z,22.91
2022-11-15T04:02:47.961Z,22.92
2022-11-15T04:05:14.571Z,22.92
2022-11-15T04:07:41.177Z,22.92
2022-11-15T04:10:09.168Z,22.91
2022-11-15T04:12:37.431Z,22.92
2022-11-15T04:15:07.871Z,22.91
2022-11-15T04:17:50.677Z,22.91
2022-11-15T04:20:22.146Z,22.90
2022-11-15T04:22:48.749Z,22.90
2022-11-15T04:25:18.422Z,22.90
2022-11-15T04:27:47.264Z,22.90
2022-11-15T04:30:13.864Z,22.89
2022-11-15T04:32:40.472Z,22.90
2022-11-15T04:35:07.249Z,22.91
2022-11-15T04:37:33.846Z,22.91
2022-11-15T04:40:00.458Z,22.91
2022-11-15T04:42:27.058Z,22.91
2022-11-15T04:44:53.664Z,22.91
2022-11-15T04:47:20.284Z,22.93
2022-11-15T04:49:46.908Z,22.92
2022-11-15T04:52:13.511Z,22.91
2022-11-15T04:54:40.431Z,22.91
2022-11-15T04:57:07.038Z,22.93
2022-11-15T04:59:33.652Z,22.94
2022-11-15T05:02:00.269Z,22.97
2022-11-15T05:04:27.104Z,22.98
2022-11-15T05:06:53.783Z,22.99
2022-11-15T05:09:20.594Z,22.98
2022-11-15T05:11:47.273Z,22.98
2022-11-15T05:14:14.019Z,22.99
2022-11-15T05:16:40.670Z,22.98
2022-11-15T05:19:07.340Z,22.98
2022-11-15T05:21:33.963Z,22.98
2022-11-15T05:24:00.577Z,22.99
2022-11-15T05:26:27.190Z,22.97
2022-11-15T05:28:54.829Z,22.95
2022-11-15T05:31:21.456Z,22.97
2022-11-15T05:33:48.090Z,22.97
2022-11-15T05:36:18.794Z,23.00
2022-11-15T05:38:46.680Z,23.03
2022-11-15T05:41:13.288Z,23.03
2022-11-15T05:43:39.930Z,23.03
2022-11-15T05:46:06.542Z,23.00
2022-11-15T05:48:35.495Z,23.04
2022-11-15T05:51:02.116Z,23.01
2022-11-15T05:53:28.963Z,23.00
2022-11-15T05:55:55.749Z,23.00
2022-11-15T05:58:22.349Z,22.99
2022-11-15T06:00:48.963Z,22.99
2022-11-15T06:03:15.578Z,22.99
2022-11-15T06:05:42.182Z,23.00
2022-11-15T06:08:08.890Z,23.01
2022-11-15T06:10:35.495Z,23.01
2022-11-15T06:13:03.532Z,23.04
2022-11-15T06:15:30.152Z,23.04
2022-11-15T06:17:59.506Z,23.04
2022-11-15T06:20:29.623Z,23.02
2022-11-15T06:23:04.225Z,23.01
2022-11-15T06:25:30.932Z,23.02
2022-11-15T06:27:58.216Z,23.02
2022-11-15T06:30:25.256Z,23.01
2022-11-15T06:32:51.970Z,23.01
2022-11-15T06:35:18.637Z,23.01
2022-11-15T06:37:45.262Z,23.00
2022-11-15T06:40:12.202Z,23.00
2022-11-15T06:42:38.802Z,23.00
2022-11-15T06:45:06.051Z,22.99
2022-11-15T06:47:32.667Z,22.99
2022-11-15T06:49:59.287Z,22.99
2022-11-15T06:52:25.916Z,22.99
2022-11-15T06:54:52.525Z,22.98
2022-11-15T06:57:19.151Z,22.98
2022-11-15T06:59:45.764Z,22.97
2022-11-15T07:02:15.395Z,22.97
2022-11-15T07:04:42.011Z,22.97
2022-11-15T07:07:08.664Z,22.97
2022-11-15T07:09:35.286Z,22.97
2022-11-15T07:12:07.329Z,22.96
2022-11-15T07:14:34.408Z,22.96
2022-11-15T07:17:01.017Z,22.96
2022-11-15T07:19:27.649Z,22.96
2022-11-15T07:21:54.298Z,22.96
2022-11-15T07:24:20.912Z,22.96
2022-11-15T07:26:47.512Z,22.96
2022-11-15T07:29:14.379Z,22.95
2022-11-15T07:31:40.992Z,22.95
2022-11-15T07:34:07.603Z,22.94
2022-11-15T07:36:34.227Z,22.96
2022-11-15T07:39:00.842Z,22.95
2022-11-15T07:41:27.477Z,22.94
2022-11-15T07:43:54.190Z,22.95
2022-11-15T07:46:20.808Z,22.95
2022-11-15T07:48:47.428Z,22.95
2022-11-15T07:51:14.865Z,22.93
2022-11-15T07:53:42.628Z,22.94
2022-11-15T07:56:09.264Z,22.95
2022-11-15T07:58:37.028Z,22.94
2022-11-15T08:01:07.506Z,22.93
2022-11-15T08:03:34.651Z,22.93
2022-11-15T08:06:01.514Z,22.93
2022-11-15T08:08:28.227Z,22.92
2022-11-15T08:10:54.843Z,22.92
2022-11-15T08:13:21.505Z,22.92
2022-11-15T08:15:51.037Z,22.92
2022-11-15T08:18:20.087Z,22.90
2022-11-15T08:20:46.701Z,22.92
2022-11-15T08:23:13.329Z,22.91
2022-11-15T08:25:40.034Z,22.92
2022-11-15T08:28:07.411Z,22.92
2022-11-15T08:30:38.336Z,22.92
2022-11-15T08:33:04.941Z,22.91
2022-11-15T08:35:31.545Z,22.92
2022-11-15T08:37:58.154Z,22.91
2022-11-15T08:40:24.929Z,22.92
2022-11-15T08:42:51.569Z,22.92
2022-11-15T08:45:18.190Z,22.92
2022-11-15T08:47:47.427Z,22.93
2022-11-15T08:50:17.904Z,22.93
2022-11-15T08:52:44.510Z,22.93
2022-11-15T08:55:11.115Z,22.93
2022-11-15T08:57:37.735Z,22.93
2022-11-15T09:00:04.779Z,22.93
2022-11-15T09:02:31.407Z,22.92
2022-11-15T09:04:58.029Z,22.93
2022-11-15T09:07:24.926Z,22.93
2022-11-15T09:09:51.615Z,22.94
2022-11-15T09:12:18.229Z,22.94
2022-11-15T09:14:44.914Z,22.92
2022-11-15T09:17:11.517Z,22.94
2022-11-15T09:19:38.137Z,22.94
2022-11-15T09:22:07.258Z,22.93
2022-11-15T09:24:33.871Z,22.94
2022-11-15T09:27:00.473Z,22.94
2022-11-15T09:29:27.133Z,22.93
2022-11-15T09:31:53.965Z,22.93
2022-11-15T09:34:20.598Z,22.93
2022-11-15T09:36:47.453Z,22.92
2022-11-15T09:39:14.077Z,22.92
2022-11-15T09:42:02.931Z,22.93
2022-11-15T09:44:54.160Z,22.92
2022-11-15T09:47:56.399Z,22.91
2022-11-15T09:50:35.400Z,22.90
2022-11-15T09:53:02.016Z,22.92
2022-11-15T09:55:54.554Z,22.91
2022-11-15T09:58:44.575Z,22.91
2022-11-15T10:01:21.105Z,22.91
2022-11-15T10:03:47.748Z,22.91
2022-11-15T10:06:24.937Z,22.92
2022-11-15T10:08:58.348Z,22.92
2022-11-15T10:11:42.231Z,22.92
2022-11-15T10:14:14.254Z,22.92
2022-11-15T10:16:51.032Z,22.92
2022-11-15T10:20:08.477Z,22.91
2022-11-15T10:22:45.260Z,22.92
2022-11-15T10:25:28.404Z,22.92
2022-11-15T10:27:59.154Z,22.90
2022-11-15T10:30:32.356Z,22.91
2022-11-15T10:32:59.019Z,22.92
2022-11-15T10:35:30.022Z,22.92
2022-11-15T10:38:09.143Z,22.92
2022-11-15T10:40:35.968Z,22.92
2022-11-15T10:43:11.450Z,22.93
2022-11-15T10:45:38.098Z,22.92
2022-11-15T10:48:13.560Z,22.93
2022-11-15T10:50:46.613Z,22.92
2022-11-15T10:53:34.583Z,22.91
2022-11-15T10:56:07.176Z,22.92
2022-11-15T10:58:44.285Z,22.93
2022-11-15T11:01:21.055Z,22.92
2022-11-15T11:04:07.431Z,22.93
2022-11-15T11:06:57.822Z,22.92
2022-11-15T11:09:40.202Z,22.93
2022-11-15T11:12:10.155Z,22.92
2022-11-15T11:14:37.789Z,22.93
2022-11-15T11:17:15.757Z,22.93
2022-11-15T11:20:03.997Z,22.93
2022-11-15T11:22:54.440Z,22.93
2022-11-15T11:25:31.082Z,22.94
2022-11-15T11:28:13.401Z,22.93
2022-11-15T11:30:54.039Z,22.94
2022-11-15T11:33:39.886Z,22.93
2022-11-15T11:36:22.754Z,22.94
2022-11-15T11:38:56.020Z,22.93
2022-11-15T11:41:47.419Z,22.93
2022-11-15T11:44:33.599Z,22.92
2022-11-15T11:47:16.048Z,22.93
2022-11-15T11:49:42.507Z,22.92
2022-11-15T11:52:19.627Z,22.92
2022-11-15T11:54:58.450Z,22.93
2022-11-15T11:57:26.877Z,22.93
2022-11-15T12:00:25.070Z,22.93
2022-11-15T12:03:10.627Z,22.93
2022-11-15T12:05:45.446Z,22.93
2022-11-15T12:08:20.882Z,22.92
2022-11-15T12:10:49.407Z,22.92
2022-11-15T12:13:17.849Z,22.92
2022-11-15T12:15:46.417Z,22.93
2022-11-15T12:18:14.599Z,22.93
2022-11-15T12:20:43.535Z,22.94
2022-11-15T12:23:18.976Z,22.94
2022-11-15T12:25:55.979Z,22.93
2022-11-15T12:29:05.995Z,22.95
2022-11-15T12:31:45.183Z,22.94
2022-11-15T12:34:36.061Z,22.94
2022-11-15T12:37:02.677Z,22.95
2022-11-15T12:40:04.574Z,22.95
2022-11-15T12:42:31.072Z,22.93
2022-11-15T12:44:57.963Z,22.94
2022-11-15T12:47:26.443Z,22.94
2022-11-15T12:49:53.226Z,22.96
2022-11-15T12:52:20.100Z,22.94
2022-11-15T12:54:51.941Z,22.93
2022-11-15T12:57:28.757Z,22.93
2022-11-15T12:59:57.297Z,22.94
2022-11-15T13:02:36.292Z,22.93
2022-11-15T13:05:15.081Z,22.95
2022-11-15T13:07:41.644Z,22.95
2022-11-15T13:10:11.216Z,22.95
2022-11-15T13:12:43.548Z,22.95
2022-11-15T13:15:13.010Z,22.96
2022-11-15T13:17:40.790Z,22.95
2022-11-15T13:20:07.260Z,22.95
2022-11-15T13:22:50.021Z,22.95
2022-11-15T13:25:19.503Z,22.96
2022-11-15T13:27:49.354Z,22.96
2022-11-15T13:30:29.076Z,22.96
2022-11-15T13:32:55.736Z,22.96
2022-11-15T13:35:26.119Z,22.96
2022-11-15T13:37:53.109Z,22.97
2022-11-15T13:40:21.496Z,22.97
2022-11-15T13:42:48.172Z,22.97
2022-11-15T13:45:16.248Z,22.96
2022-11-15T13:47:42.965Z,22.96
2022-11-15T13:50:13.594Z,22.97
2022-11-15T13:52:41.492Z,22.95
2022-11-15T13:55:19.660Z,22.96
2022-11-15T13:57:49.390Z,22.95
2022-11-15T14:00:38.508Z,22.95
2022-11-15T14:03:27.630Z,22.95
2022-11-15T14:06:05.390Z,22.95
2022-11-15T14:08:32.328Z,22.96
2022-11-15T14:11:17.990Z,22.96
2022-11-15T14:14:10.070Z,22.96
2022-11-15T14:16:41.993Z,22.95
2022-11-15T14:19:12.316Z,22.95
2022-11-15T14:21:38.949Z,22.96
2022-11-15T14:24:18.846Z,22.96
2022-11-15T14:26:45.452Z,22.96
2022-11-15T14:29:28.709Z,22.96
2022-11-15T14:32:06.543Z,22.96
2022-11-15T14:34:33.535Z,22.95
2022-11-15T14:37:00.142Z,22.96
2022-11-15T14:39:26.739Z,22.96
2022-11-15T14:41:53.345Z,22.96
2022-11-15T14:44:19.948Z,22.96
2022-11-15T14:46:46.546Z,22.96
2022-11-15T14:49:13.168Z,22.96
2022-11-15T14:51:39.829Z,22.96
2022-11-15T14:54:06.447Z,22.95
2022-11-15T14:56:33.056Z,22.97
2022-11-15T14:58:59.691Z,22.96
2022-11-15T15:01:26.642Z,22.96
2022-11-15T15:03:53.676Z,22.96
2022-11-15T15:06:20.388Z,22.96
2022-11-15T15:08:47.124Z,22.96
2022-11-15T15:11:29.575Z,22.96
2022-11-15T15:13:56.182Z,22.95
2022-11-15T15:16:22.797Z,22.95
2022-11-15T15:18:49.507Z,22.97
2022-11-15T15:21:23.901Z,22.95
2022-11-15T15:23:50.616Z,22.96
2022-11-15T15:26:17.284Z,22.96
2022-11-15T15:28:43.914Z,22.96
2022-11-15T15:31:10.741Z,22.96
2022-11-15T15:33:37.748Z,22.96
2022-11-15T15:36:04.494Z,22.96
2022-11-15T15:38:31.533Z,22.97
2022-11-15T15:40:58.391Z,22.97
2022-11-15T15:43:24.990Z,22.96
2022-11-15T15:45:51.598Z,22.96
2022-11-15T15:48:18.326Z,22.97
2022-11-15T15:50:44.969Z,22.98
2022-11-15T15:53:11.935Z,22.98
2022-11-15T15:55:38.557Z,22.97
2022-11-15T15:58:05.596Z,22.96
2022-11-15T16:00:32.205Z,22.96
2022-11-15T16:02:58.807Z,22.96
2022-11-15T16:05:25.431Z,22.94
2022-11-15T16:07:52.145Z,22.96
2022-11-15T16:10:21.663Z,22.96
2022-11-15T16:12:48.381Z,22.95
2022-11-15T16:15:15.055Z,22.94
2022-11-15T16:17:55.092Z,22.93
2022-11-15T16:20:42.451Z,22.93
2022-11-15T16:23:13.471Z,22.94
2022-11-15T16:25:42.770Z,22.94
2022-11-15T16:28:34.615Z,22.92
2022-11-15T16:31:11.157Z,22.93
2022-11-15T16:33:37.820Z,22.94
2022-11-15T16:36:26.978Z,22.93
2022-11-15T16:38:56.393Z,22.93
2022-11-15T16:41:23.006Z,22.93
2022-11-15T16:43:49.611Z,22.93
2022-11-15T16:46:22.704Z,22.93
2022-11-15T16:48:49.307Z,22.93
2022-11-15T16:51:16.047Z,22.93
2022-11-15T16:53:42.737Z,22.94
2022-11-15T16:56:18.975Z,22.93
2022-11-15T16:58:45.578Z,22.93
2022-11-15T17:01:27.758Z,22.93
2022-11-15T17:03:54.537Z,22.93
2022-11-15T17:06:21.405Z,22.93
2022-11-15T17:08:48.191Z,22.92
2022-11-15T17:11:15.801Z,22.93
2022-11-15T17:13:42.403Z,22.92
2022-11-15T17:16:13.185Z,22.92
2022-11-15T17:18:40.044Z,22.93
2022-11-15T17:21:17.341Z,22.93
2022-11-15T17:23:43.979Z,22.92
2022-11-15T17:26:28.929Z,22.92
2022-11-15T17:28:56.524Z,22.92
2022-11-15T17:31:23.213Z,22.92
2022-11-15T17:33:49.837Z,22.92
2022-11-15T17:36:16.447Z,22.93
2022-11-15T17:38:43.073Z,22.95
2022-11-15T17:41:13.616Z,22.95
2022-11-15T17:43:40.414Z,22.96
2022-11-15T17:46:09.031Z,22.95
2022-11-15T17:48:35.648Z,22.98
2022-11-15T17:51:04.227Z,22.92
2022-11-15T17:53:37.212Z,22.55
2022-11-15T17:56:04.639Z,22.42
2022-11-15T17:58:32.091Z,22.40
2022-11-15T18:01:09.104Z,22.45
2022-11-15T18:03:36.782Z,22.51
2022-11-15T18:06:06.553Z,22.57
2022-11-15T18:08:33.397Z,22.62
2022-11-15T18:11:10.421Z,22.66
2022-11-15T18:13:37.580Z,22.69
2022-11-15T18:16:05.305Z,22.72
2022-11-15T18:18:32.741Z,22.74
2022-11-15T18:21:11.293Z,22.76
2022-11-15T18:23:38.011Z,22.77
2022-11-15T18:26:05.383Z,22.79
2022-11-15T18:28:33.594Z,22.80
2022-11-15T18:31:00.725Z,22.81
2022-11-15T18:33:27.937Z,22.81
2022-11-15T18:36:05.302Z,22.82
2022-11-15T18:38:31.943Z,22.83
2022-11-15T18:41:01.118Z,22.84
2022-11-15T18:43:28.181Z,22.84
2022-11-15T18:45:54.790Z,22.83
2022-11-15T18:48:21.417Z,22.85
2022-11-15T18:50:50.415Z,22.85
2022-11-15T18:53:18.718Z,22.85
2022-11-15T18:55:45.330Z,22.85
2022-11-15T18:58:11.945Z,22.85
2022-11-15T19:00:38.589Z,22.85
2022-11-15T19:03:05.235Z,22.86
2022-11-15T19:05:31.842Z,22.86
2022-11-15T19:07:58.517Z,22.86
2022-11-15T19:10:25.605Z,22.86
2022-11-15T19:12:52.203Z,22.86
2022-11-15T19:15:18.818Z,22.85
2022-11-15T19:17:45.417Z,22.86
2022-11-15T19:20:12.027Z,22.85
2022-11-15T19:22:38.629Z,22.87
2022-11-15T19:25:05.389Z,22.86
2022-11-15T19:27:36.895Z,22.87
2022-11-15T19:30:04.931Z,22.85
2022-11-15T19:32:31.533Z,22.85
2022-11-15T19:34:58.138Z,22.86
2022-11-15T19:37:24.751Z,22.86
2022-11-15T19:39:51.373Z,22.87
2022-11-15T19:42:17.995Z,22.86
2022-11-15T19:44:44.603Z,22.87
2022-11-15T19:47:11.229Z,22.88
2022-11-15T19:49:37.874Z,22.88
2022-11-15T19:52:04.764Z,22.88
2022-11-15T19:54:31.403Z,22.89
2022-11-15T19:56:58.015Z,22.91
2022-11-15T19:59:24.635Z,22.89
2022-11-15T20:01:51.233Z,22.89
2022-11-15T20:04:17.858Z,22.90
2022-11-15T20:06:44.463Z,22.90
2022-11-15T20:09:14.869Z,22.91
2022-11-15T20:11:41.497Z,22.92
2022-11-15T20:14:08.103Z,22.95
2022-11-15T20:16:34.729Z,22.98
2022-11-15T20:19:01.394Z,23.01
2022-11-15T20:21:28.021Z,23.01
2022-11-15T20:23:54.641Z,23.03
2022-11-15T20:26:21.287Z,23.03
2022-11-15T20:28:48.256Z,23.04
2022-11-15T20:31:15.072Z,23.03
2022-11-15T20:33:41.721Z,23.03
2022-11-15T20:36:13.387Z,23.03
2022-11-15T20:38:40.007Z,23.04
2022-11-15T20:41:06.622Z,23.05
2022-11-15T20:43:33.243Z,23.06
2022-11-15T20:45:59.879Z,23.06
2022-11-15T20:48:26.919Z,23.07
2022-11-15T20:51:06.455Z,23.08
2022-11-15T20:53:33.122Z,23.11
2022-11-15T20:56:10.209Z,23.12
2022-11-15T20:58:37.008Z,23.11
2022-11-15T21:01:05.092Z,23.10
2022-11-15T21:03:31.862Z,23.10
2022-11-15T21:05:58.705Z,23.08
2022-11-15T21:08:25.338Z,23.08
2022-11-15T21:10:52.415Z,23.05
2022-11-15T21:13:19.031Z,23.02
2022-11-15T21:15:45.666Z,23.02
2022-11-15T21:18:12.286Z,23.01
2022-11-15T21:20:39.027Z,23.01
2022-11-15T21:23:05.665Z,23.00
2022-11-15T21:25:33.206Z,22.99
2022-11-15T21:27:59.866Z,22.98
2022-11-15T21:30:26.560Z,22.98
2022-11-15T21:32:53.192Z,22.99
2022-11-15T21:35:19.835Z,22.99
2022-11-15T21:37:47.822Z,22.98
2022-11-15T21:40:16.418Z,22.97
2022-11-15T21:42:43.045Z,22.97
2022-11-15T21:45:10.079Z,22.97
2022-11-15T21:47:36.707Z,22.97
2022-11-15T21:50:03.375Z,22.96
2022-11-15T21:52:29.999Z,22.96
2022-11-15T21:54:56.627Z,22.96
2022-11-15T21:57:23.250Z,22.96
2022-11-15T21:59:49.872Z,22.95
2022-11-15T22:02:16.508Z,22.95
2022-11-15T22:04:43.128Z,22.96
2022-11-15T22:07:09.784Z,22.97
2022-11-15T22:09:36.680Z,22.97
2022-11-15T22:12:03.331Z,22.97
2022-11-15T22:14:29.969Z,22.97
2022-11-15T22:16:56.607Z,22.97
2022-11-15T22:19:23.227Z,22.96
2022-11-15T22:21:49.870Z,22.95
2022-11-15T22:24:16.488Z,22.95
2022-11-15T22:26:43.103Z,22.93
2022-11-15T22:29:09.727Z,22.95
2022-11-15T22:31:36.350Z,22.94
2022-11-15T22:34:03.478Z,22.95
2022-11-15T22:36:42.454Z,22.94
2022-11-15T22:39:16.747Z,22.94
2022-11-15T22:41:43.377Z,22.94
2022-11-15T22:44:09.995Z,22.93
2022-11-15T22:46:36.620Z,22.92
2022-11-15T22:49:03.709Z,22.95
2022-11-15T22:51:30.355Z,22.93
2022-11-15T22:53:57.010Z,22.93
2022-11-15T22:56:23.642Z,22.93
2022-11-15T22:58:50.257Z,22.92
2022-11-15T23:01:20.833Z,22.93
2022-11-15T23:03:47.547Z,22.93
2022-11-15T23:06:14.215Z,22.92
2022-11-15T23:08:41.215Z,22.91
2022-11-15T23:11:09.963Z,22.92
2022-11-15T23:13:36.641Z,22.91
2022-11-15T23:16:09.379Z,22.92
2022-11-15T23:18:38.852Z,22.92
2022-11-15T23:21:13.196Z,22.93
2022-11-15T23:23:39.818Z,22.91
2022-11-15T23:26:06.531Z,22.92
2022-11-15T23:28:33.702Z,22.91
2022-11-15T23:31:07.339Z,22.91
2022-11-15T23:33:33.957Z,22.90
2022-11-15T23:36:00.622Z,22.90
2022-11-15T23:38:27.249Z,22.90
2022-11-15T23:40:54.240Z,22.90
2022-11-15T23:43:23.860Z,22.90
2022-11-15T23:45:50.490Z,22.91
2022-11-15T23:48:17.140Z,22.90
2022-11-15T23:50:46.055Z,22.90
2022-11-15T23:53:12.680Z,22.91
2022-11-15T23:55:39.322Z,22.91
2022-11-15T23:58:05.959Z,22.91
